Share

Adak, AK

12:28 AM HADT on April 24, 2014 (GMT -0900)
Adak (PADK) Elev 13 ft | 51.88 °N, 176.65 °W | Change Station

Current weather conditions updated 12 minutes ago

Overcast
Overcast
37 °F
Feels Like 30 °F
N
10
Wind Variable Wind from East
Sunrise 7:30 AM
Sunset 9:59 PM
Moon Waning Crescent

Today is forecast to be nearly the same temperature as yesterday. .

Pressure 29.30 in
Visibility 10.0 miles
Clouds Scattered Clouds 1800 ft
Overcast 2600 ft
Windchill 30 °F
Dew Point 30 °F
Humidity 75%
Rainfall 0.00 in
Snow Depth Not available.
UV 0 out of 16
Pollen Not available.
Air Quality Not available.
Flu Activity Sporadic
METAR PADK 240916Z AUTO 08009KT 10SM SCT018 OVC026 03/M01 A2930 RMK AO1

More Conditions Fewer Conditions

Pressure 29.30 in
Visibility 10.0 miles
Clouds Scattered Clouds 1800 ft
Overcast 2600 ft
Windchill 30 °F
Dew Point 30 °F
Humidity 75%
Rainfall 0.00 in
Snow Depth Not available.
UV 0 out of 16
Pollen Not available.
Air Quality Not available.
Flu Activity Sporadic
METAR PADK 240916Z AUTO 08009KT 10SM SCT018 OVC026 03/M01 A2930 RMK AO1

More Conditions Fewer Conditions

10-Day Weather Forecast

Almanac

Astronomy

Apr. 24, 2014 Rise Set
Actual Time 7:30 AM HADT 9:59 PM HADT
Civil Twilight 6:53 AM HADT 10:37 PM HADT
Nautical Twilight 6:05 AM HADT 11:25 PM HADT
Astronomical Twilight 5:09 AM HADT 12:22 AM HADT
Moon 5:26 AM HADT 4:59 PM HADT
Length of Visible Light 15h 44m
Length of Day
14h 29m
Tomorrow will be 3m 43s longer.
Waning Crescent, 27% of the Moon is Illuminated
Today
Waning Crescent
Apr 29
New
May 6
First Quarter
May 14
Full
May 21
Last Quarter

Today's Extremes

State Highs State Lows

Community

  • Stacked
    Stacked
  • clouds approaching Red Sox Nation
    clouds approaching Red Sox Nation
  • Balance
    Balance
  • Nestled In
    Nestled In
  • Stunning Sunrise
    Stunning Sunrise

WunderPhotos

Upload Photos

1,704,575 photos uploaded!

WunderBlogs® & News

Nearby

Snow Depth

Station Depth Elevation
Rocky Point 1 in 500 ft
Pargon Creek 0 in 300 ft
Port Graham 2 in 300 ft
Mcneil Canyon 3 in 1320 ft
MF Bradley River 17 in 2300 ft

Coastal Water Temperatures

Place Temperature
No Stations Reporting

Earthquake Activity

City Distance Mag. Time & Date
No recent earthquake activity has been reported nearby.
Minimum magnitude displayed is 2.5.

Nearby Weather Stations

There are no personal weather stations in this area.

What do you think?

We're not finished. Please let us know what you like, what you don't like, and what you are still missing.